sensor_id;sensor_type;location;lat;lon;timestamp;P1;durP1;ratioP1;P2;durP2;ratioP2
55308;SDS011;44028;51.358;19.876;2023-02-01T00:02:05;7.72;;;4.50;;
55308;SDS011;44028;51.358;19.876;2023-02-01T00:04:31;8.98;;;4.82;;
55308;SDS011;44028;51.358;19.876;2023-02-01T00:06:58;4.82;;;3.17;;
55308;SDS011;44028;51.358;19.876;2023-02-01T00:09:24;6.30;;;3.22;;
55308;SDS011;44028;51.358;19.876;2023-02-01T00:11:51;6.28;;;3.17;;
55308;SDS011;44028;51.358;19.876;2023-02-01T00:14:17;6.20;;;3.67;;
55308;SDS011;44028;51.358;19.876;2023-02-01T00:16:44;4.82;;;2.90;;
55308;SDS011;44028;51.358;19.876;2023-02-01T00:19:12;5.40;;;3.35;;
55308;SDS011;44028;51.358;19.876;2023-02-01T00:21:39;5.70;;;3.10;;
55308;SDS011;44028;51.358;19.876;2023-02-01T00:24:05;5.47;;;3.50;;
55308;SDS011;44028;51.358;19.876;2023-02-01T00:26:40;7.05;;;3.60;;
55308;SDS011;44028;51.358;19.876;2023-02-01T00:29:10;5.72;;;3.88;;
55308;SDS011;44028;51.358;19.876;2023-02-01T00:31:37;6.05;;;3.50;;
55308;SDS011;44028;51.358;19.876;2023-02-01T00:34:04;8.65;;;4.47;;
55308;SDS011;44028;51.358;19.876;2023-02-01T00:36:31;7.95;;;4.57;;
55308;SDS011;44028;51.358;19.876;2023-02-01T00:38:58;7.38;;;3.85;;
55308;SDS011;44028;51.358;19.876;2023-02-01T00:41:25;7.60;;;4.45;;
55308;SDS011;44028;51.358;19.876;2023-02-01T00:43:51;8.20;;;3.90;;
55308;SDS011;44028;51.358;19.876;2023-02-01T00:46:18;7.30;;;4.00;;
55308;SDS011;44028;51.358;19.876;2023-02-01T00:48:45;8.10;;;3.58;;
55308;SDS011;44028;51.358;19.876;2023-02-01T00:51:14;7.15;;;3.47;;
55308;SDS011;44028;51.358;19.876;2023-02-01T00:53:40;8.18;;;3.85;;
55308;SDS011;44028;51.358;19.876;2023-02-01T00:56:07;6.15;;;3.30;;
55308;SDS011;44028;51.358;19.876;2023-02-01T00:58:34;5.07;;;3.05;;
55308;SDS011;44028;51.358;19.876;2023-02-01T01:01:02;6.10;;;3.03;;
55308;SDS011;44028;51.358;19.876;2023-02-01T01:03:30;5.10;;;2.80;;
55308;SDS011;44028;51.358;19.876;2023-02-01T01:06:00;8.48;;;3.10;;
55308;SDS011;44028;51.358;19.876;2023-02-01T01:08:27;6.13;;;3.20;;
55308;SDS011;44028;51.358;19.876;2023-02-01T01:10:54;10.63;;;3.90;;
55308;SDS011;44028;51.358;19.876;2023-02-01T01:13:21;24.15;;;6.18;;
55308;SDS011;44028;51.358;19.876;2023-02-01T01:15:47;9.73;;;3.40;;
55308;SDS011;44028;51.358;19.876;2023-02-01T01:18:14;7.88;;;3.10;;
55308;SDS011;44028;51.358;19.876;2023-02-01T01:20:41;8.65;;;3.70;;
55308;SDS011;44028;51.358;19.876;2023-02-01T01:23:08;9.90;;;3.42;;
55308;SDS011;44028;51.358;19.876;2023-02-01T01:25:38;7.63;;;3.03;;
55308;SDS011;44028;51.358;19.876;2023-02-01T01:28:05;5.65;;;3.00;;
55308;SDS011;44028;51.358;19.876;2023-02-01T01:30:35;6.72;;;2.80;;
55308;SDS011;44028;51.358;19.876;2023-02-01T01:33:02;4.93;;;2.95;;
55308;SDS011;44028;51.358;19.876;2023-02-01T01:35:29;10.70;;;3.50;;
55308;SDS011;44028;51.358;19.876;2023-02-01T01:37:57;9.32;;;3.00;;
55308;SDS011;44028;51.358;19.876;2023-02-01T01:40:24;8.07;;;3.50;;
55308;SDS011;44028;51.358;19.876;2023-02-01T01:42:51;7.15;;;3.45;;
55308;SDS011;44028;51.358;19.876;2023-02-01T01:45:33;6.07;;;3.17;;
55308;SDS011;44028;51.358;19.876;2023-02-01T01:48:05;7.93;;;3.40;;
55308;SDS011;44028;51.358;19.876;2023-02-01T01:50:35;11.73;;;4.50;;
55308;SDS011;44028;51.358;19.876;2023-02-01T01:53:03;7.50;;;3.50;;
55308;SDS011;44028;51.358;19.876;2023-02-01T01:55:31;9.65;;;3.88;;
55308;SDS011;44028;51.358;19.876;2023-02-01T01:58:02;9.88;;;3.70;;
55308;SDS011;44028;51.358;19.876;2023-02-01T02:00:32;10.55;;;3.97;;
55308;SDS011;44028;51.358;19.876;2023-02-01T02:05:49;6.97;;;3.00;;
55308;SDS011;44028;51.358;19.876;2023-02-01T02:08:17;8.57;;;2.90;;
55308;SDS011;44028;51.358;19.876;2023-02-01T02:10:44;10.82;;;3.63;;
55308;SDS011;44028;51.358;19.876;2023-02-01T02:13:28;8.45;;;3.10;;
55308;SDS011;44028;51.358;19.876;2023-02-01T02:16:19;9.88;;;3.80;;
55308;SDS011;44028;51.358;19.876;2023-02-01T02:18:56;7.30;;;3.10;;
55308;SDS011;44028;51.358;19.876;2023-02-01T02:26:45;6.22;;;2.60;;
55308;SDS011;44028;51.358;19.876;2023-02-01T02:29:21;9.90;;;2.97;;
55308;SDS011;44028;51.358;19.876;2023-02-01T02:34:37;5.47;;;2.72;;
55308;SDS011;44028;51.358;19.876;2023-02-01T02:42:29;10.85;;;3.42;;
55308;SDS011;44028;51.358;19.876;2023-02-01T02:45:18;10.45;;;3.45;;
55308;SDS011;44028;51.358;19.876;2023-02-01T02:50:36;7.65;;;3.20;;
55308;SDS011;44028;51.358;19.876;2023-02-01T02:53:18;7.68;;;3.22;;
55308;SDS011;44028;51.358;19.876;2023-02-01T02:55:59;8.57;;;3.10;;
55308;SDS011;44028;51.358;19.876;2023-02-01T02:58:41;8.68;;;3.00;;
55308;SDS011;44028;51.358;19.876;2023-02-01T03:01:22;10.35;;;3.15;;
55308;SDS011;44028;51.358;19.876;2023-02-01T03:04:04;8.43;;;2.95;;
55308;SDS011;44028;51.358;19.876;2023-02-01T03:06:44;7.18;;;3.00;;
55308;SDS011;44028;51.358;19.876;2023-02-01T03:09:35;6.70;;;3.10;;
55308;SDS011;44028;51.358;19.876;2023-02-01T03:11:59;9.65;;;3.28;;
55308;SDS011;44028;51.358;19.876;2023-02-01T03:14:42;11.43;;;3.72;;
55308;SDS011;44028;51.358;19.876;2023-02-01T03:17:11;8.88;;;3.00;;
55308;SDS011;44028;51.358;19.876;2023-02-01T03:19:40;11.60;;;3.28;;
55308;SDS011;44028;51.358;19.876;2023-02-01T03:22:14;10.23;;;3.23;;
55308;SDS011;44028;51.358;19.876;2023-02-01T03:24:43;6.90;;;3.33;;
55308;SDS011;44028;51.358;19.876;2023-02-01T03:27:13;8.63;;;3.15;;
55308;SDS011;44028;51.358;19.876;2023-02-01T03:32:21;11.07;;;3.20;;
55308;SDS011;44028;51.358;19.876;2023-02-01T03:34:48;10.35;;;3.72;;
55308;SDS011;44028;51.358;19.876;2023-02-01T03:37:19;13.15;;;4.32;;
55308;SDS011;44028;51.358;19.876;2023-02-01T03:39:52;9.85;;;3.83;;
55308;SDS011;44028;51.358;19.876;2023-02-01T03:42:24;9.32;;;3.88;;
55308;SDS011;44028;51.358;19.876;2023-02-01T03:44:56;9.90;;;3.90;;
55308;SDS011;44028;51.358;19.876;2023-02-01T03:47:24;9.23;;;3.55;;
55308;SDS011;44028;51.358;19.876;2023-02-01T03:52:28;10.40;;;3.67;;
55308;SDS011;44028;51.358;19.876;2023-02-01T03:54:57;10.68;;;3.30;;
55308;SDS011;44028;51.358;19.876;2023-02-01T03:57:29;9.05;;;3.25;;
55308;SDS011;44028;51.358;19.876;2023-02-01T04:00:15;12.10;;;3.72;;
55308;SDS011;44028;51.358;19.876;2023-02-01T04:02:42;12.38;;;3.55;;
55308;SDS011;44028;51.358;19.876;2023-02-01T04:05:09;7.20;;;3.42;;
55308;SDS011;44028;51.358;19.876;2023-02-01T04:07:36;10.00;;;3.35;;
55308;SDS011;44028;51.358;19.876;2023-02-01T04:10:03;10.02;;;3.20;;
55308;SDS011;44028;51.358;19.876;2023-02-01T04:12:29;9.18;;;3.45;;
55308;SDS011;44028;51.358;19.876;2023-02-01T04:14:56;11.75;;;3.33;;
55308;SDS011;44028;51.358;19.876;2023-02-01T04:17:23;11.63;;;3.30;;
55308;SDS011;44028;51.358;19.876;2023-02-01T04:19:49;13.18;;;3.88;;
55308;SDS011;44028;51.358;19.876;2023-02-01T04:22:16;8.23;;;3.40;;
55308;SDS011;44028;51.358;19.876;2023-02-01T04:24:42;10.15;;;3.40;;
55308;SDS011;44028;51.358;19.876;2023-02-01T04:27:09;11.95;;;3.80;;
55308;SDS011;44028;51.358;19.876;2023-02-01T04:29:36;11.63;;;3.58;;
55308;SDS011;44028;51.358;19.876;2023-02-01T04:32:02;11.18;;;4.22;;
55308;SDS011;44028;51.358;19.876;2023-02-01T04:34:29;25.58;;;6.45;;
55308;SDS011;44028;51.358;19.876;2023-02-01T04:36:56;22.10;;;6.28;;
55308;SDS011;44028;51.358;19.876;2023-02-01T04:39:22;18.25;;;6.43;;
55308;SDS011;44028;51.358;19.876;2023-02-01T04:41:49;26.13;;;7.25;;
55308;SDS011;44028;51.358;19.876;2023-02-01T04:44:16;13.52;;;4.32;;
55308;SDS011;44028;51.358;19.876;2023-02-01T04:46:44;49.33;;;12.32;;
55308;SDS011;44028;51.358;19.876;2023-02-01T04:49:11;13.45;;;4.30;;
55308;SDS011;44028;51.358;19.876;2023-02-01T04:51:38;24.77;;;7.75;;
55308;SDS011;44028;51.358;19.876;2023-02-01T04:54:05;10.55;;;4.40;;
55308;SDS011;44028;51.358;19.876;2023-02-01T04:56:32;12.63;;;4.50;;
55308;SDS011;44028;51.358;19.876;2023-02-01T04:59:01;12.68;;;4.00;;
55308;SDS011;44028;51.358;19.876;2023-02-01T05:01:28;11.75;;;4.10;;
55308;SDS011;44028;51.358;19.876;2023-02-01T05:03:55;15.57;;;5.45;;
55308;SDS011;44028;51.358;19.876;2023-02-01T05:06:22;17.50;;;4.75;;
55308;SDS011;44028;51.358;19.876;2023-02-01T05:08:49;7.75;;;3.55;;
55308;SDS011;44028;51.358;19.876;2023-02-01T05:11:15;13.63;;;4.97;;
55308;SDS011;44028;51.358;19.876;2023-02-01T05:13:56;7.65;;;3.60;;
55308;SDS011;44028;51.358;19.876;2023-02-01T05:16:23;13.73;;;4.35;;
55308;SDS011;44028;51.358;19.876;2023-02-01T05:18:49;16.05;;;5.55;;
55308;SDS011;44028;51.358;19.876;2023-02-01T05:21:16;16.67;;;4.47;;
55308;SDS011;44028;51.358;19.876;2023-02-01T05:23:43;12.90;;;4.40;;
55308;SDS011;44028;51.358;19.876;2023-02-01T05:26:24;17.58;;;4.10;;
55308;SDS011;44028;51.358;19.876;2023-02-01T05:28:51;15.55;;;3.85;;
55308;SDS011;44028;51.358;19.876;2023-02-01T05:31:18;18.08;;;4.68;;
55308;SDS011;44028;51.358;19.876;2023-02-01T05:33:45;14.68;;;5.18;;
55308;SDS011;44028;51.358;19.876;2023-02-01T05:36:12;12.70;;;3.75;;
55308;SDS011;44028;51.358;19.876;2023-02-01T05:38:38;11.68;;;3.60;;
55308;SDS011;44028;51.358;19.876;2023-02-01T05:41:05;17.02;;;5.82;;
55308;SDS011;44028;51.358;19.876;2023-02-01T05:43:32;17.77;;;7.50;;
55308;SDS011;44028;51.358;19.876;2023-02-01T05:45:59;14.25;;;5.78;;
55308;SDS011;44028;51.358;19.876;2023-02-01T05:48:25;13.93;;;4.60;;
55308;SDS011;44028;51.358;19.876;2023-02-01T05:50:52;15.35;;;4.45;;
55308;SDS011;44028;51.358;19.876;2023-02-01T05:53:19;10.35;;;3.75;;
55308;SDS011;44028;51.358;19.876;2023-02-01T05:55:46;14.10;;;4.93;;
55308;SDS011;44028;51.358;19.876;2023-02-01T05:58:13;21.80;;;9.10;;
55308;SDS011;44028;51.358;19.876;2023-02-01T06:00:40;21.52;;;6.45;;
55308;SDS011;44028;51.358;19.876;2023-02-01T06:03:06;13.68;;;5.22;;
55308;SDS011;44028;51.358;19.876;2023-02-01T06:05:33;19.63;;;6.88;;
55308;SDS011;44028;51.358;19.876;2023-02-01T06:08:00;23.10;;;7.20;;
55308;SDS011;44028;51.358;19.876;2023-02-01T06:10:26;22.35;;;6.78;;
55308;SDS011;44028;51.358;19.876;2023-02-01T06:12:53;20.38;;;6.50;;
55308;SDS011;44028;51.358;19.876;2023-02-01T06:15:20;22.00;;;6.60;;
55308;SDS011;44028;51.358;19.876;2023-02-01T06:17:47;16.20;;;5.28;;
55308;SDS011;44028;51.358;19.876;2023-02-01T06:20:14;18.30;;;5.85;;
55308;SDS011;44028;51.358;19.876;2023-02-01T06:22:41;18.92;;;5.97;;
55308;SDS011;44028;51.358;19.876;2023-02-01T06:25:08;19.58;;;6.05;;
55308;SDS011;44028;51.358;19.876;2023-02-01T06:27:35;21.88;;;5.95;;
55308;SDS011;44028;51.358;19.876;2023-02-01T06:30:03;15.63;;;5.32;;
55308;SDS011;44028;51.358;19.876;2023-02-01T06:32:30;19.70;;;5.13;;
55308;SDS011;44028;51.358;19.876;2023-02-01T06:34:57;16.88;;;4.63;;
55308;SDS011;44028;51.358;19.876;2023-02-01T06:37:24;13.70;;;4.78;;
55308;SDS011;44028;51.358;19.876;2023-02-01T06:39:56;15.55;;;5.50;;
55308;SDS011;44028;51.358;19.876;2023-02-01T06:42:23;15.35;;;5.63;;
55308;SDS011;44028;51.358;19.876;2023-02-01T06:44:50;20.60;;;5.88;;
55308;SDS011;44028;51.358;19.876;2023-02-01T06:47:17;30.58;;;7.57;;
55308;SDS011;44028;51.358;19.876;2023-02-01T06:49:44;37.78;;;11.05;;
55308;SDS011;44028;51.358;19.876;2023-02-01T06:52:11;18.42;;;6.32;;
55308;SDS011;44028;51.358;19.876;2023-02-01T06:54:37;26.90;;;8.70;;
55308;SDS011;44028;51.358;19.876;2023-02-01T06:57:04;24.02;;;7.50;;
55308;SDS011;44028;51.358;19.876;2023-02-01T06:59:31;20.65;;;7.68;;
55308;SDS011;44028;51.358;19.876;2023-02-01T07:01:58;21.52;;;6.75;;
55308;SDS011;44028;51.358;19.876;2023-02-01T07:04:25;20.75;;;5.40;;
55308;SDS011;44028;51.358;19.876;2023-02-01T07:06:52;22.17;;;5.55;;
55308;SDS011;44028;51.358;19.876;2023-02-01T07:09:18;19.17;;;6.60;;
55308;SDS011;44028;51.358;19.876;2023-02-01T07:11:45;19.17;;;5.20;;
55308;SDS011;44028;51.358;19.876;2023-02-01T07:14:12;25.42;;;10.85;;
55308;SDS011;44028;51.358;19.876;2023-02-01T07:16:39;20.98;;;6.65;;
55308;SDS011;44028;51.358;19.876;2023-02-01T07:19:06;18.02;;;5.30;;
55308;SDS011;44028;51.358;19.876;2023-02-01T07:21:33;16.30;;;5.95;;
55308;SDS011;44028;51.358;19.876;2023-02-01T07:24:00;15.02;;;5.45;;
55308;SDS011;44028;51.358;19.876;2023-02-01T07:26:27;19.65;;;5.45;;
55308;SDS011;44028;51.358;19.876;2023-02-01T07:28:54;19.80;;;5.63;;
55308;SDS011;44028;51.358;19.876;2023-02-01T07:31:21;19.98;;;6.50;;
55308;SDS011;44028;51.358;19.876;2023-02-01T07:33:48;20.20;;;6.82;;
55308;SDS011;44028;51.358;19.876;2023-02-01T07:36:18;19.20;;;6.32;;
55308;SDS011;44028;51.358;19.876;2023-02-01T07:38:45;16.85;;;5.30;;
55308;SDS011;44028;51.358;19.876;2023-02-01T07:41:15;18.50;;;6.80;;
55308;SDS011;44028;51.358;19.876;2023-02-01T07:43:42;17.40;;;5.65;;
55308;SDS011;44028;51.358;19.876;2023-02-01T07:46:09;17.33;;;5.78;;
55308;SDS011;44028;51.358;19.876;2023-02-01T07:48:38;18.83;;;6.40;;
55308;SDS011;44028;51.358;19.876;2023-02-01T07:51:06;18.60;;;6.30;;
55308;SDS011;44028;51.358;19.876;2023-02-01T07:53:34;11.98;;;4.28;;
55308;SDS011;44028;51.358;19.876;2023-02-01T07:56:01;36.30;;;10.38;;
55308;SDS011;44028;51.358;19.876;2023-02-01T07:58:28;16.73;;;4.93;;
55308;SDS011;44028;51.358;19.876;2023-02-01T08:00:55;19.02;;;5.00;;
55308;SDS011;44028;51.358;19.876;2023-02-01T08:03:35;16.80;;;4.90;;
55308;SDS011;44028;51.358;19.876;2023-02-01T08:06:02;17.25;;;5.32;;
55308;SDS011;44028;51.358;19.876;2023-02-01T08:08:29;16.90;;;5.05;;
55308;SDS011;44028;51.358;19.876;2023-02-01T08:10:59;18.52;;;4.65;;
55308;SDS011;44028;51.358;19.876;2023-02-01T08:13:32;14.60;;;4.60;;
55308;SDS011;44028;51.358;19.876;2023-02-01T08:15:59;14.45;;;4.30;;
55308;SDS011;44028;51.358;19.876;2023-02-01T08:18:27;13.00;;;4.30;;
55308;SDS011;44028;51.358;19.876;2023-02-01T08:20:53;10.82;;;4.05;;
55308;SDS011;44028;51.358;19.876;2023-02-01T08:23:21;14.07;;;4.50;;
55308;SDS011;44028;51.358;19.876;2023-02-01T08:25:48;15.75;;;4.63;;
55308;SDS011;44028;51.358;19.876;2023-02-01T08:28:15;15.60;;;4.63;;
55308;SDS011;44028;51.358;19.876;2023-02-01T08:30:42;17.55;;;4.97;;
55308;SDS011;44028;51.358;19.876;2023-02-01T08:33:09;17.50;;;4.93;;
55308;SDS011;44028;51.358;19.876;2023-02-01T08:35:36;13.60;;;4.15;;
55308;SDS011;44028;51.358;19.876;2023-02-01T08:38:09;17.73;;;5.22;;
55308;SDS011;44028;51.358;19.876;2023-02-01T08:40:36;18.60;;;5.82;;
55308;SDS011;44028;51.358;19.876;2023-02-01T08:43:02;14.05;;;5.80;;
55308;SDS011;44028;51.358;19.876;2023-02-01T08:45:29;18.25;;;5.68;;
55308;SDS011;44028;51.358;19.876;2023-02-01T08:47:56;16.92;;;4.78;;
55308;SDS011;44028;51.358;19.876;2023-02-01T08:50:23;13.73;;;4.75;;
55308;SDS011;44028;51.358;19.876;2023-02-01T08:52:51;19.02;;;6.65;;
55308;SDS011;44028;51.358;19.876;2023-02-01T08:55:18;20.35;;;6.68;;
55308;SDS011;44028;51.358;19.876;2023-02-01T08:57:45;19.73;;;6.40;;
55308;SDS011;44028;51.358;19.876;2023-02-01T09:00:13;14.30;;;5.60;;
55308;SDS011;44028;51.358;19.876;2023-02-01T09:02:42;13.75;;;5.13;;
55308;SDS011;44028;51.358;19.876;2023-02-01T09:05:08;13.93;;;5.50;;
55308;SDS011;44028;51.358;19.876;2023-02-01T09:07:37;17.90;;;5.47;;
55308;SDS011;44028;51.358;19.876;2023-02-01T09:10:04;14.95;;;4.78;;
55308;SDS011;44028;51.358;19.876;2023-02-01T09:12:31;20.52;;;7.07;;
55308;SDS011;44028;51.358;19.876;2023-02-01T09:14:58;18.42;;;6.15;;
55308;SDS011;44028;51.358;19.876;2023-02-01T09:17:26;16.38;;;6.60;;
55308;SDS011;44028;51.358;19.876;2023-02-01T09:19:54;9.00;;;4.15;;
55308;SDS011;44028;51.358;19.876;2023-02-01T09:22:21;13.77;;;5.00;;
55308;SDS011;44028;51.358;19.876;2023-02-01T09:24:48;17.27;;;6.15;;
55308;SDS011;44028;51.358;19.876;2023-02-01T09:27:14;18.73;;;5.47;;
55308;SDS011;44028;51.358;19.876;2023-02-01T09:29:41;12.70;;;5.03;;
55308;SDS011;44028;51.358;19.876;2023-02-01T09:32:08;12.90;;;5.25;;
55308;SDS011;44028;51.358;19.876;2023-02-01T09:34:35;19.20;;;5.65;;
55308;SDS011;44028;51.358;19.876;2023-02-01T09:37:01;17.90;;;5.20;;
55308;SDS011;44028;51.358;19.876;2023-02-01T09:39:28;15.88;;;5.70;;
55308;SDS011;44028;51.358;19.876;2023-02-01T09:47:20;13.35;;;4.95;;
55308;SDS011;44028;51.358;19.876;2023-02-01T09:49:52;14.68;;;5.10;;
55308;SDS011;44028;51.358;19.876;2023-02-01T09:52:23;14.70;;;5.50;;
55308;SDS011;44028;51.358;19.876;2023-02-01T09:54:54;15.88;;;5.20;;
55308;SDS011;44028;51.358;19.876;2023-02-01T10:00:04;14.40;;;5.07;;
55308;SDS011;44028;51.358;19.876;2023-02-01T10:02:32;11.40;;;4.80;;
55308;SDS011;44028;51.358;19.876;2023-02-01T10:05:02;14.85;;;5.50;;
55308;SDS011;44028;51.358;19.876;2023-02-01T10:09:58;14.02;;;5.13;;
55308;SDS011;44028;51.358;19.876;2023-02-01T10:12:50;11.82;;;4.57;;
55308;SDS011;44028;51.358;19.876;2023-02-01T10:15:15;14.18;;;4.95;;
55308;SDS011;44028;51.358;19.876;2023-02-01T10:28:07;19.27;;;6.53;;
55308;SDS011;44028;51.358;19.876;2023-02-01T10:30:41;18.30;;;6.60;;
55308;SDS011;44028;51.358;19.876;2023-02-01T10:33:23;17.23;;;6.55;;
55308;SDS011;44028;51.358;19.876;2023-02-01T10:36:12;22.02;;;7.90;;
55308;SDS011;44028;51.358;19.876;2023-02-01T10:38:40;14.45;;;5.65;;
55308;SDS011;44028;51.358;19.876;2023-02-01T10:43:48;22.88;;;6.88;;
55308;SDS011;44028;51.358;19.876;2023-02-01T10:46:16;19.13;;;6.90;;
55308;SDS011;44028;51.358;19.876;2023-02-01T10:48:43;14.07;;;5.40;;
55308;SDS011;44028;51.358;19.876;2023-02-01T10:53:48;19.00;;;6.50;;
55308;SDS011;44028;51.358;19.876;2023-02-01T10:56:21;13.02;;;5.07;;
55308;SDS011;44028;51.358;19.876;2023-02-01T10:58:48;14.65;;;5.43;;
55308;SDS011;44028;51.358;19.876;2023-02-01T11:01:28;17.27;;;5.30;;
55308;SDS011;44028;51.358;19.876;2023-02-01T11:03:57;15.55;;;6.45;;
55308;SDS011;44028;51.358;19.876;2023-02-01T11:06:35;17.40;;;5.80;;
55308;SDS011;44028;51.358;19.876;2023-02-01T11:11:32;13.68;;;6.15;;
55308;SDS011;44028;51.358;19.876;2023-02-01T11:14:00;16.20;;;6.40;;
55308;SDS011;44028;51.358;19.876;2023-02-01T11:16:32;19.83;;;6.55;;
55308;SDS011;44028;51.358;19.876;2023-02-01T11:18:59;23.23;;;7.22;;
55308;SDS011;44028;51.358;19.876;2023-02-01T11:21:26;13.25;;;6.28;;
55308;SDS011;44028;51.358;19.876;2023-02-01T11:23:53;19.80;;;7.80;;
55308;SDS011;44028;51.358;19.876;2023-02-01T11:26:24;18.02;;;7.95;;
55308;SDS011;44028;51.358;19.876;2023-02-01T11:29:01;15.43;;;6.13;;
55308;SDS011;44028;51.358;19.876;2023-02-01T11:31:29;20.02;;;6.78;;
55308;SDS011;44028;51.358;19.876;2023-02-01T11:34:04;20.52;;;8.27;;
55308;SDS011;44028;51.358;19.876;2023-02-01T11:36:32;19.60;;;6.93;;
55308;SDS011;44028;51.358;19.876;2023-02-01T11:42:00;16.40;;;7.05;;
55308;SDS011;44028;51.358;19.876;2023-02-01T11:44:35;17.67;;;6.10;;
55308;SDS011;44028;51.358;19.876;2023-02-01T11:49:42;22.38;;;7.68;;
55308;SDS011;44028;51.358;19.876;2023-02-01T12:04:56;24.13;;;8.48;;
55308;SDS011;44028;51.358;19.876;2023-02-01T12:44:24;21.08;;;7.88;;
55308;SDS011;44028;51.358;19.876;2023-02-01T12:54:27;12.68;;;4.57;;
55308;SDS011;44028;51.358;19.876;2023-02-01T13:52:45;21.92;;;8.50;;
55308;SDS011;44028;51.358;19.876;2023-02-01T13:55:23;60.55;;;29.70;;
55308;SDS011;44028;51.358;19.876;2023-02-01T13:58:42;20.23;;;7.50;;
55308;SDS011;44028;51.358;19.876;2023-02-01T14:05:04;16.38;;;6.72;;
55308;SDS011;44028;51.358;19.876;2023-02-01T14:08:11;18.05;;;8.73;;
55308;SDS011;44028;51.358;19.876;2023-02-01T14:17:34;26.15;;;13.48;;
55308;SDS011;44028;51.358;19.876;2023-02-01T14:22:46;28.08;;;12.90;;
55308;SDS011;44028;51.358;19.876;2023-02-01T14:25:16;33.83;;;15.68;;
55308;SDS011;44028;51.358;19.876;2023-02-01T14:27:44;30.45;;;14.68;;
55308;SDS011;44028;51.358;19.876;2023-02-01T14:30:14;42.08;;;17.60;;
55308;SDS011;44028;51.358;19.876;2023-02-01T14:32:41;50.90;;;20.30;;
55308;SDS011;44028;51.358;19.876;2023-02-01T14:35:24;76.40;;;26.58;;
55308;SDS011;44028;51.358;19.876;2023-02-01T14:37:53;69.88;;;26.77;;
55308;SDS011;44028;51.358;19.876;2023-02-01T14:40:23;33.42;;;13.27;;
55308;SDS011;44028;51.358;19.876;2023-02-01T15:30:57;15.18;;;8.30;;
55308;SDS011;44028;51.358;19.876;2023-02-01T15:33:25;14.73;;;8.88;;
55308;SDS011;44028;51.358;19.876;2023-02-01T15:36:06;17.35;;;9.48;;
55308;SDS011;44028;51.358;19.876;2023-02-01T15:38:38;13.60;;;7.68;;
55308;SDS011;44028;51.358;19.876;2023-02-01T15:46:13;22.45;;;11.15;;
55308;SDS011;44028;51.358;19.876;2023-02-01T15:48:45;21.48;;;10.95;;
55308;SDS011;44028;51.358;19.876;2023-02-01T15:51:20;22.30;;;13.38;;
55308;SDS011;44028;51.358;19.876;2023-02-01T15:53:56;18.05;;;9.77;;
55308;SDS011;44028;51.358;19.876;2023-02-01T15:56:25;18.63;;;9.05;;
55308;SDS011;44028;51.358;19.876;2023-02-01T15:58:56;18.92;;;8.55;;
55308;SDS011;44028;51.358;19.876;2023-02-01T16:01:23;16.83;;;8.90;;
55308;SDS011;44028;51.358;19.876;2023-02-01T16:04:00;20.73;;;10.65;;
55308;SDS011;44028;51.358;19.876;2023-02-01T16:06:29;23.02;;;12.55;;
55308;SDS011;44028;51.358;19.876;2023-02-01T16:11:29;30.00;;;18.45;;
55308;SDS011;44028;51.358;19.876;2023-02-01T16:13:59;27.48;;;15.80;;
55308;SDS011;44028;51.358;19.876;2023-02-01T16:16:27;22.38;;;13.13;;
55308;SDS011;44028;51.358;19.876;2023-02-01T16:18:54;25.92;;;13.90;;
55308;SDS011;44028;51.358;19.876;2023-02-01T16:21:21;28.77;;;15.57;;
55308;SDS011;44028;51.358;19.876;2023-02-01T16:23:51;21.45;;;12.48;;
55308;SDS011;44028;51.358;19.876;2023-02-01T16:26:19;22.40;;;12.75;;
55308;SDS011;44028;51.358;19.876;2023-02-01T16:28:46;21.65;;;13.02;;
55308;SDS011;44028;51.358;19.876;2023-02-01T16:31:13;23.85;;;13.30;;
55308;SDS011;44028;51.358;19.876;2023-02-01T16:33:46;35.70;;;18.15;;
55308;SDS011;44028;51.358;19.876;2023-02-01T16:36:13;29.00;;;13.15;;
55308;SDS011;44028;51.358;19.876;2023-02-01T16:38:40;37.92;;;18.98;;
55308;SDS011;44028;51.358;19.876;2023-02-01T16:41:09;31.35;;;13.90;;
55308;SDS011;44028;51.358;19.876;2023-02-01T16:43:39;22.90;;;12.23;;
55308;SDS011;44028;51.358;19.876;2023-02-01T16:46:08;28.63;;;14.85;;
55308;SDS011;44028;51.358;19.876;2023-02-01T16:48:38;24.70;;;13.35;;
55308;SDS011;44028;51.358;19.876;2023-02-01T16:51:12;21.52;;;10.70;;
55308;SDS011;44028;51.358;19.876;2023-02-01T16:53:39;21.50;;;9.40;;
55308;SDS011;44028;51.358;19.876;2023-02-01T16:56:23;32.67;;;12.95;;
55308;SDS011;44028;51.358;19.876;2023-02-01T16:58:52;42.25;;;16.15;;
55308;SDS011;44028;51.358;19.876;2023-02-01T17:01:20;52.25;;;18.83;;
55308;SDS011;44028;51.358;19.876;2023-02-01T17:03:47;37.20;;;14.90;;
55308;SDS011;44028;51.358;19.876;2023-02-01T17:06:17;25.05;;;9.70;;
55308;SDS011;44028;51.358;19.876;2023-02-01T17:08:46;35.63;;;14.80;;
55308;SDS011;44028;51.358;19.876;2023-02-01T17:11:13;34.97;;;14.27;;
55308;SDS011;44028;51.358;19.876;2023-02-01T17:13:40;40.65;;;15.45;;
55308;SDS011;44028;51.358;19.876;2023-02-01T17:18:50;30.00;;;13.02;;
55308;SDS011;44028;51.358;19.876;2023-02-01T17:21:18;27.30;;;13.48;;
55308;SDS011;44028;51.358;19.876;2023-02-01T17:23:46;36.60;;;14.85;;
55308;SDS011;44028;51.358;19.876;2023-02-01T17:26:12;32.78;;;13.82;;
55308;SDS011;44028;51.358;19.876;2023-02-01T17:28:39;33.75;;;14.98;;
55308;SDS011;44028;51.358;19.876;2023-02-01T17:31:06;39.35;;;16.60;;
55308;SDS011;44028;51.358;19.876;2023-02-01T17:33:35;31.65;;;14.60;;
55308;SDS011;44028;51.358;19.876;2023-02-01T17:36:03;85.88;;;32.92;;
55308;SDS011;44028;51.358;19.876;2023-02-01T17:38:30;68.82;;;33.85;;
55308;SDS011;44028;51.358;19.876;2023-02-01T17:40:56;62.55;;;37.35;;
55308;SDS011;44028;51.358;19.876;2023-02-01T17:43:24;37.85;;;20.42;;
55308;SDS011;44028;51.358;19.876;2023-02-01T17:45:52;31.33;;;17.30;;
55308;SDS011;44028;51.358;19.876;2023-02-01T17:48:20;23.55;;;13.30;;
55308;SDS011;44028;51.358;19.876;2023-02-01T17:50:50;31.35;;;14.30;;
55308;SDS011;44028;51.358;19.876;2023-02-01T17:53:20;25.52;;;13.20;;
55308;SDS011;44028;51.358;19.876;2023-02-01T17:55:50;25.58;;;12.75;;
55308;SDS011;44028;51.358;19.876;2023-02-01T17:58:17;35.40;;;16.63;;
55308;SDS011;44028;51.358;19.876;2023-02-01T18:00:44;29.40;;;17.25;;
55308;SDS011;44028;51.358;19.876;2023-02-01T18:03:22;29.88;;;14.98;;
55308;SDS011;44028;51.358;19.876;2023-02-01T18:05:50;25.90;;;12.90;;
55308;SDS011;44028;51.358;19.876;2023-02-01T18:08:28;26.75;;;13.52;;
55308;SDS011;44028;51.358;19.876;2023-02-01T18:10:56;29.52;;;13.73;;
55308;SDS011;44028;51.358;19.876;2023-02-01T18:13:27;25.77;;;16.38;;
55308;SDS011;44028;51.358;19.876;2023-02-01T18:15:54;22.33;;;10.52;;
55308;SDS011;44028;51.358;19.876;2023-02-01T18:18:21;16.33;;;8.48;;
55308;SDS011;44028;51.358;19.876;2023-02-01T18:20:48;17.50;;;8.30;;
55308;SDS011;44028;51.358;19.876;2023-02-01T18:23:21;19.65;;;10.25;;
55308;SDS011;44028;51.358;19.876;2023-02-01T18:25:49;26.03;;;11.30;;
55308;SDS011;44028;51.358;19.876;2023-02-01T18:28:17;27.33;;;12.80;;
55308;SDS011;44028;51.358;19.876;2023-02-01T18:30:44;22.65;;;11.05;;
55308;SDS011;44028;51.358;19.876;2023-02-01T18:33:12;19.67;;;8.73;;
55308;SDS011;44028;51.358;19.876;2023-02-01T18:35:39;15.30;;;6.95;;
55308;SDS011;44028;51.358;19.876;2023-02-01T18:38:06;21.52;;;7.65;;